Time;durP1;ratioP1;P1;durP2;ratioP2;P2;SDS_P1;SDS_P2;PMS_P1;PMS_P2;Temp;Humidity;BMP_temperature;BMP_pressure;BME280_temperature;BME280_humidity;BME280_pressure;Samples;Min_cycle;Max_cycle;Signal;HPM_P1;HPM_P2
2021/06/01 00:03:38;;;;;;;10.67;8.20;;;;;13.80;101278.00;;;;10512694;28;20197;-77
2021/06/01 00:08:40;;;;;;;11.83;8.17;;;;;13.70;101282.00;;;;10512693;28;20188;-77
2021/06/01 00:13:42;;;;;;;12.20;7.87;;;;;13.60;101272.00;;;;10483510;28;20225;-77
2021/06/01 00:18:45;;;;;;;14.20;8.73;;;;;13.50;101274.00;;;;10453117;28;20213;-77
2021/06/01 00:23:48;;;;;;;10.73;8.23;;;;;13.40;101266.00;;;;10472442;28;20212;-77
2021/06/01 00:28:52;;;;;;;8.93;8.03;;;;;13.30;101273.00;;;;10512305;28;20185;-77
2021/06/01 00:33:54;;;;;;;9.23;8.33;;;;;13.30;101277.00;;;;10510742;28;20231;-77
2021/06/01 00:38:56;;;;;;;11.97;8.60;;;;;13.40;101274.00;;;;10527337;28;20288;-77
2021/06/01 00:43:58;;;;;;;8.83;8.00;;;;;13.40;101278.00;;;;10477190;28;20185;-77
2021/06/01 00:49:00;;;;;;;10.70;7.40;;;;;13.40;101285.00;;;;10510840;28;20228;-77
2021/06/01 00:54:02;;;;;;;15.47;7.97;;;;;13.50;101288.00;;;;10504250;28;20204;-77
2021/06/01 00:59:04;;;;;;;11.17;7.40;;;;;13.60;101279.00;;;;10476484;28;20212;-77
2021/06/01 01:04:06;;;;;;;12.13;8.80;;;;;13.60;101279.00;;;;10510413;28;20342;-77
2021/06/01 01:09:14;;;;;;;10.30;7.30;;;;;13.50;101278.00;;;;10509773;28;20222;-77
2021/06/01 01:14:26;;;;;;;10.10;7.67;;;;;13.40;101277.00;;;;10509672;28;20225;-77
2021/06/01 01:19:46;;;;;;;11.67;7.83;;;;;13.30;101279.00;;;;10509134;28;20691;-77
2021/06/01 01:24:57;;;;;;;10.83;8.13;;;;;13.20;101285.00;;;;10487892;28;20188;-77
2021/06/01 01:30:03;;;;;;;12.20;7.90;;;;;13.20;101280.00;;;;10508576;28;20693;-77
2021/06/01 01:35:06;;;;;;;12.33;7.97;;;;;13.10;101285.00;;;;10508408;28;20220;-77
2021/06/01 01:40:09;;;;;;;10.90;7.90;;;;;13.00;101287.00;;;;10490922;28;20221;-77
2021/06/01 01:45:27;;;;;;;9.67;7.47;;;;;12.90;101292.00;;;;10466346;28;20240;-77
2021/06/01 01:50:29;;;;;;;11.93;9.10;;;;;12.70;101282.00;;;;10483869;28;20727;-77
2021/06/01 01:55:32;;;;;;;14.47;8.37;;;;;12.60;101295.00;;;;10484082;28;20209;-77
2021/06/01 02:00:34;;;;;;;11.33;7.97;;;;;12.50;101291.00;;;;10507213;28;20253;-77
2021/06/01 02:05:38;;;;;;;10.37;9.00;;;;;12.30;101287.00;;;;10525061;28;20193;-77
2021/06/01 02:10:40;;;;;;;10.37;8.30;;;;;12.10;101286.00;;;;10507826;28;20193;-77
2021/06/01 02:15:42;;;;;;;12.47;9.07;;;;;12.00;101286.00;;;;10524859;28;20296;-77
2021/06/01 02:20:46;;;;;;;12.50;9.53;;;;;11.90;101284.00;;;;10523881;28;20710;-77
2021/06/01 02:25:57;;;;;;;15.13;9.90;;;;;11.80;101288.00;;;;10490296;28;20204;-77
2021/06/01 02:31:09;;;;;;;10.37;9.13;;;;;11.70;101284.00;;;;10523958;28;20220;-77
2021/06/01 02:36:14;;;;;;;12.17;9.57;;;;;11.60;101277.00;;;;10506701;28;20243;-77
2021/06/01 02:41:17;;;;;;;13.80;9.27;;;;;11.60;101286.00;;;;10490467;28;20193;-77
2021/06/01 02:46:19;;;;;;;15.20;9.57;;;;;11.50;101298.00;;;;10450262;28;20213;-77
2021/06/01 02:51:21;;;;;;;13.27;9.83;;;;;11.40;101294.00;;;;10481899;28;20772;-77
2021/06/01 02:56:23;;;;;;;11.13;9.57;;;;;11.30;101293.00;;;;10465464;28;20220;-77
2021/06/01 03:01:25;;;;;;;13.37;10.80;;;;;11.30;101292.00;;;;10447715;28;20726;-77
2021/06/01 03:06:29;;;;;;;14.13;10.17;;;;;11.50;101291.00;;;;10447602;28;20197;-77
2021/06/01 03:11:32;;;;;;;13.80;8.83;;;;;11.60;101287.00;;;;10463869;28;20243;-77
2021/06/01 03:16:34;;;;;;;10.23;8.67;;;;;11.40;101291.00;;;;10463318;28;20210;-77
2021/06/01 03:21:37;;;;;;;16.03;10.10;;;;;11.30;101283.00;;;;10455253;28;20190;-77
2021/06/01 03:26:39;;;;;;;13.83;10.33;;;;;11.20;101286.00;;;;10472503;28;20649;-77
2021/06/01 03:31:41;;;;;;;14.57;10.83;;;;;11.20;101279.00;;;;10488247;28;20259;-77
2021/06/01 03:36:43;;;;;;;13.60;10.43;;;;;11.20;101284.00;;;;10487866;28;20228;-77
2021/06/01 03:41:46;;;;;;;12.30;9.40;;;;;11.10;101285.00;;;;10491850;28;20254;-77
2021/06/01 03:46:48;;;;;;;13.70;9.40;;;;;11.10;101284.00;;;;10470688;28;20198;-77
2021/06/01 03:51:49;;;;;;;13.50;9.67;;;;;11.20;101281.00;;;;10471158;28;20212;-77
2021/06/01 03:56:51;;;;;;;15.37;10.43;;;;;11.20;101285.00;;;;10466775;28;20320;-77
2021/06/01 04:01:53;;;;;;;16.93;10.93;;;;;11.30;101281.00;;;;10512931;28;20215;-77
2021/06/01 04:06:55;;;;;;;11.40;10.20;;;;;11.40;101284.00;;;;10495610;28;20721;-77
2021/06/01 04:11:57;;;;;;;13.03;11.23;;;;;11.70;101271.00;;;;10511208;28;20197;-77
2021/06/01 04:17:02;;;;;;;13.20;10.80;;;;;11.80;101278.00;;;;10527279;28;20775;-77
2021/06/01 04:22:04;;;;;;;13.30;9.70;;;;;11.80;101278.00;;;;10512026;28;20189;-77
2021/06/01 04:27:07;;;;;;;16.33;11.17;;;;;11.90;101275.00;;;;10511899;28;20204;-77
2021/06/01 04:32:09;;;;;;;14.67;10.87;;;;;11.90;101278.00;;;;10492620;28;20307;-77
2021/06/01 04:37:10;;;;;;;14.87;10.77;;;;;12.00;101274.00;;;;10510890;28;20219;-77
2021/06/01 04:42:12;;;;;;;13.70;11.20;;;;;12.10;101275.00;;;;10468870;28;20243;-77
2021/06/01 04:47:14;;;;;;;15.43;11.87;;;;;12.30;101268.00;;;;10486393;28;20185;-77
2021/06/01 04:52:16;;;;;;;15.87;10.73;;;;;12.70;101268.00;;;;10469281;28;20193;-77
2021/06/01 04:57:18;;;;;;;18.77;11.33;;;;;13.00;101271.00;;;;10484573;28;20243;-77
2021/06/01 05:02:20;;;;;;;12.90;11.30;;;;;13.50;101270.00;;;;10493852;28;20204;-77
2021/06/01 05:07:23;;;;;;;20.53;11.77;;;;;14.00;101270.00;;;;10509891;28;20552;-75
2021/06/01 05:12:24;;;;;;;18.30;11.60;;;;;14.60;101267.00;;;;10493672;28;20189;-77
2021/06/01 05:17:27;;;;;;;18.13;10.83;;;;;15.10;101268.00;;;;10493192;28;20221;-77
2021/06/01 05:22:28;;;;;;;14.27;10.20;;;;;15.60;101272.00;;;;10509252;28;20250;-77
2021/06/01 05:27:30;;;;;;;14.43;10.53;;;;;16.20;101271.00;;;;10475671;28;20595;-77
2021/06/01 05:37:53;;;;;;;13.17;8.97;;;;;17.40;101252.00;;;;10465569;28;20312;-75
2021/06/01 05:42:55;;;;;;;9.13;8.13;;;;;18.10;101249.00;;;;10460871;28;20651;-77
2021/06/01 05:47:57;;;;;;;9.80;8.17;;;;;18.60;101236.00;;;;10456331;28;20644;-75
2021/06/01 05:53:00;;;;;;;12.87;8.77;;;;;19.00;101231.00;;;;10498457;28;20205;-76
2021/06/01 05:58:04;;;;;;;11.05;7.18;;;;;19.50;101242.00;;;;10473765;28;20250;-75
2021/06/01 06:03:07;;;;;;;13.80;7.18;;;;;20.00;101239.00;;;;10523322;28;20193;-76
2021/06/01 06:08:15;;;;;;;8.23;6.30;;;;;20.40;101228.00;;;;10489546;28;20219;-76
2021/06/01 06:13:17;;;;;;;11.52;6.10;;;;;20.70;101222.00;;;;10497710;28;20240;-76
2021/06/01 06:18:23;;;;;;;7.38;6.63;;;;;21.10;101230.00;;;;10479962;28;20244;-76
2021/06/01 06:23:25;;;;;;;8.15;6.80;;;;;21.50;101224.00;;;;10473087;28;20196;-76
2021/06/01 06:28:27;;;;;;;5.88;5.07;;;;;22.00;101224.00;;;;10505025;28;20257;-76
2021/06/01 06:33:29;;;;;;;7.15;4.78;;;;;22.30;101230.00;;;;10504690;28;20228;-76
2021/06/01 06:38:31;;;;;;;7.10;4.30;;;;;22.60;101222.00;;;;10505371;28;20219;-76
2021/06/01 06:43:36;;;;;;;6.22;4.65;;;;;23.10;101232.00;;;;10511965;28;20251;-76
2021/06/01 06:48:39;;;;;;;5.65;4.35;;;;;23.60;101230.00;;;;10463757;28;20192;-76
2021/06/01 06:59:13;;;;;;;8.75;4.00;;;;;23.70;101218.00;;;;10500626;28;20255;-76
2021/06/01 07:04:15;;;;;;;8.38;3.92;;;;;23.90;101219.00;;;;10476713;28;20193;-76
2021/06/01 07:09:17;;;;;;;5.22;3.20;;;;;24.10;101217.00;;;;10488435;28;20234;-76
2021/06/01 07:14:19;;;;;;;6.30;3.22;;;;;24.30;101227.00;;;;10487639;28;20194;-76
2021/06/01 07:19:21;;;;;;;4.95;2.95;;;;;24.60;101221.00;;;;10471858;28;20216;-76
2021/06/01 07:24:23;;;;;;;5.88;3.20;;;;;24.80;101210.00;;;;10529291;28;20228;-76
2021/06/01 07:29:26;;;;;;;3.35;3.05;;;;;24.90;101210.00;;;;10547129;28;20560;-76
2021/06/01 07:34:28;;;;;;;3.47;3.05;;;;;25.30;101209.00;;;;10511118;28;20793;-76
2021/06/01 07:39:30;;;;;;;4.10;2.67;;;;;25.50;101211.00;;;;10512160;28;20224;-76
2021/06/01 07:44:33;;;;;;;3.45;2.70;;;;;25.80;101207.00;;;;10546734;28;20238;-77
2021/06/01 07:49:35;;;;;;;3.70;2.90;;;;;26.00;101197.00;;;;10475683;28;20624;-76
2021/06/01 07:54:38;;;;;;;9.55;2.67;;;;;26.30;101192.00;;;;10472752;28;20537;-77
2021/06/01 07:59:39;;;;;;;4.07;2.38;;;;;26.30;101197.00;;;;10493471;28;20224;-77
2021/06/01 08:04:42;;;;;;;3.55;2.50;;;;;26.70;101182.00;;;;10498179;28;20235;-77
2021/06/01 08:09:43;;;;;;;2.63;2.42;;;;;27.00;101172.00;;;;10478964;28;20280;-77
2021/06/01 08:14:46;;;;;;;2.75;2.25;;;;;27.20;101175.00;;;;10529719;28;20188;-77
2021/06/01 08:19:48;;;;;;;3.00;2.55;;;;;27.70;101169.00;;;;10512644;28;20304;-77
2021/06/01 08:24:50;;;;;;;3.25;2.22;;;;;27.50;101164.00;;;;10546835;28;20197;-77
2021/06/01 08:29:52;;;;;;;2.75;2.22;;;;;27.40;101152.00;;;;10528789;28;20250;-77
2021/06/01 08:34:54;;;;;;;2.30;2.10;;;;;27.60;101167.00;;;;10494360;28;20221;-77
2021/06/01 08:39:57;;;;;;;2.35;2.15;;;;;27.70;101164.00;;;;10546444;28;20204;-77
2021/06/01 08:44:59;;;;;;;1.88;1.77;;;;;28.00;101158.00;;;;10528811;28;20982;-77
2021/06/01 08:50:05;;;;;;;3.38;2.30;;;;;28.40;101148.00;;;;10498775;28;20197;-77
2021/06/01 08:55:10;;;;;;;2.78;2.28;;;;;28.80;101147.00;;;;10511902;28;20196;-77
2021/06/01 09:00:12;;;;;;;2.70;2.00;;;;;29.00;101151.00;;;;10485932;28;20213;-77
2021/06/01 09:05:16;;;;;;;4.55;1.80;;;;;28.70;101143.00;;;;10520750;28;20267;-76
2021/06/01 09:10:37;;;;;;;2.22;1.95;;;;;28.40;101146.00;;;;10486098;28;20593;-77
2021/06/01 09:19:50;;;;;;;4.25;2.05;;;;;28.50;101141.00;;;;10504989;28;20238;-77
2021/06/01 09:21:14;;;;;;;2.70;2.08;;;;;28.70;101138.00;;;;10510561;28;20189;-77
2021/06/01 09:32:07;;;;;;;2.55;1.90;;;;;28.30;101129.00;;;;10527656;28;20251;-77
2021/06/01 09:37:34;;;;;;;1.92;1.83;;;;;28.30;101133.00;;;;10544375;28;20234;-77
2021/06/01 09:42:42;;;;;;;2.75;1.67;;;;;28.60;101126.00;;;;10526954;28;20189;-78
2021/06/01 09:47:46;;;;;;;3.45;2.30;;;;;28.70;101122.00;;;;10509456;28;20238;-78
2021/06/01 09:52:56;;;;;;;2.95;2.05;;;;;29.00;101114.00;;;;10504435;28;20280;-78
2021/06/01 09:57:59;;;;;;;4.72;2.15;;;;;28.90;101115.00;;;;10523793;28;20255;-78
2021/06/01 10:03:03;;;;;;;2.55;1.90;;;;;28.90;101108.00;;;;10510319;28;20208;-76
2021/06/01 10:08:10;;;;;;;6.18;1.83;;;;;29.20;101108.00;;;;10489615;28;20205;-78
2021/06/01 10:13:12;;;;;;;2.13;1.95;;;;;29.60;101091.00;;;;10527213;28;20559;-76
2021/06/01 10:18:16;;;;;;;4.00;2.13;;;;;29.60;101107.00;;;;10510198;28;20189;-77
2021/06/01 10:23:23;;;;;;;3.05;2.28;;;;;29.60;101089.00;;;;10527720;28;20264;-78
2021/06/01 10:28:45;;;;;;;2.75;2.10;;;;;29.70;101094.00;;;;10494318;28;20565;-77
2021/06/01 10:34:11;;;;;;;6.15;2.20;;;;;29.40;101087.00;;;;10470531;28;20246;-77
2021/06/01 10:55:10;;;;;;;2.33;1.90;;;;;30.60;101067.00;;;;10498088;28;20224;-78
2021/06/01 11:05:54;;;;;;;5.25;2.30;;;;;30.50;101053.00;;;;10468647;28;20185;-78
2021/06/01 11:10:56;;;;;;;2.53;1.95;;;;;30.50;101049.00;;;;10508245;28;20663;-77
2021/06/01 11:15:59;;;;;;;3.67;2.05;;;;;30.30;101042.00;;;;10509687;28;20196;-78
2021/06/01 11:22:01;;;;;;;3.00;2.00;;;;;30.40;101044.00;;;;10508891;28;20713;-78
2021/06/01 11:37:54;;;;;;;1.88;1.77;;;;;30.90;101022.00;;;;10507386;28;20185;-78
2021/06/01 11:43:13;;;;;;;2.20;2.00;;;;;30.90;101037.00;;;;10514221;28;20670;-78
2021/06/01 11:48:29;;;;;;;3.70;1.60;;;;;31.00;101026.00;;;;10498458;28;20296;-77
2021/06/01 11:53:31;;;;;;;1.85;1.75;;;;;30.80;101016.00;;;;10457743;28;20197;-77
2021/06/01 12:04:01;;;;;;;2.75;1.83;;;;;30.80;101006.00;;;;10497214;28;20249;-77
2021/06/01 12:17:09;;;;;;;3.08;1.73;;;;;31.00;100987.00;;;;10513777;28;20249;-78
2021/06/01 12:19:46;;;;;;;3.33;1.50;;;;;31.10;100981.00;;;;10487590;28;20219;-78
2021/06/01 12:24:47;;;;;;;1.50;1.40;;;;;31.50;100992.00;;;;10482413;28;20208;-77
2021/06/01 12:35:48;;;;;;;1.92;1.73;;;;;30.70;100985.00;;;;10517265;28;20248;-78
2021/06/01 12:47:29;;;;;;;2.83;1.48;;;;;31.00;100975.00;;;;10368702;28;20202;-77
2021/06/01 13:14:20;;;;;;;2.17;1.90;;;;;32.10;100942.00;;;;10511956;28;20193;-77
2021/06/01 13:51:11;;;;;;;2.10;1.70;;;;;36.40;100917.00;;;;10480024;28;20732;-78
2021/06/01 13:56:20;;;;;;;3.03;1.63;;;;;37.10;100914.00;;;;10475036;28;20207;-78
2021/06/01 14:28:49;;;;;;;3.15;1.73;;;;;40.20;100884.00;;;;10543354;28;20208;-77
2021/06/01 15:54:08;;;;;;;2.78;1.70;;;;;33.20;100843.00;;;;10530661;28;20201;-78
2021/06/01 16:15:33;;;;;;;3.75;2.10;;;;;28.20;100817.00;;;;10509102;28;20198;-77
2021/06/01 16:21:24;;;;;;;3.53;2.00;;;;;27.70;100814.00;;;;10453226;28;20239;-78
2021/06/01 16:31:37;;;;;;;2.15;1.55;;;;;27.10;100807.00;;;;10525576;28;20254;-77
2021/06/01 17:03:48;;;;;;;2.58;2.05;;;;;26.20;100804.00;;;;10495204;28;20197;-76
2021/06/01 17:14:00;;;;;;;4.07;1.92;;;;;26.00;100795.00;;;;10484687;28;20205;-76
2021/06/01 17:39:58;;;;;;;5.40;2.08;;;;;25.60;100798.00;;;;10501351;28;20912;-76
2021/06/01 17:45:03;;;;;;;3.65;2.25;;;;;25.40;100797.00;;;;10459060;28;20647;-76
2021/06/01 17:50:16;;;;;;;4.53;2.13;;;;;25.30;100797.00;;;;10518389;28;20208;-75
2021/06/01 17:55:21;;;;;;;3.35;2.13;;;;;25.20;100798.00;;;;10486929;28;20200;-76
2021/06/01 18:00:25;;;;;;;4.32;2.10;;;;;25.10;100797.00;;;;10521367;28;20226;-76
2021/06/01 18:05:31;;;;;;;4.40;2.53;;;;;25.00;100803.00;;;;10501686;28;20216;-76
2021/06/01 18:42:42;;;;;;;2.30;2.10;;;;;23.80;100796.00;;;;10502002;28;20205;-76
2021/06/01 19:25:14;;;;;;;2.60;2.40;;;;;23.80;100801.00;;;;10505655;28;20689;-77
2021/06/01 19:51:46;;;;;;;4.55;2.03;;;;;21.30;100811.00;;;;10508724;28;20220;-77
2021/06/01 19:56:49;;;;;;;3.33;2.22;;;;;21.00;100811.00;;;;10478350;28;20217;-77
2021/06/01 20:01:50;;;;;;;2.33;2.13;;;;;20.80;100823.00;;;;10496387;28;20243;-77
2021/06/01 20:06:52;;;;;;;5.88;2.33;;;;;20.50;100825.00;;;;10488829;28;20189;-77
2021/06/01 20:11:54;;;;;;;4.30;2.45;;;;;20.30;100827.00;;;;10505108;28;21175;-77
2021/06/01 20:16:57;;;;;;;4.38;2.10;;;;;20.10;100837.00;;;;10538875;28;20219;-77
2021/06/01 20:22:04;;;;;;;2.33;2.10;;;;;19.80;100844.00;;;;10510721;28;20188;-77
2021/06/01 20:27:08;;;;;;;5.57;2.72;;;;;19.60;100830.00;;;;10502843;28;20196;-77
2021/06/01 20:37:31;;;;;;;4.13;2.30;;;;;19.10;100836.00;;;;10517908;28;20220;-77
2021/06/01 20:42:33;;;;;;;4.43;2.87;;;;;18.90;100838.00;;;;10503533;28;20196;-78
2021/06/01 20:47:35;;;;;;;8.10;2.67;;;;;18.60;100834.00;;;;10508835;28;20197;-77
2021/06/01 20:52:38;;;;;;;6.70;2.87;;;;;18.40;100836.00;;;;10499639;28;20193;-77
2021/06/01 20:57:57;;;;;;;4.20;2.77;;;;;18.00;100839.00;;;;10536177;28;20204;-77
2021/06/01 21:03:04;;;;;;;3.90;2.80;;;;;17.80;100848.00;;;;10518719;28;20250;-77
2021/06/01 21:08:07;;;;;;;4.23;2.40;;;;;17.70;100854.00;;;;10500006;28;20244;-77
2021/06/01 21:13:11;;;;;;;3.33;2.50;;;;;17.60;100861.00;;;;10502680;28;20576;-77
2021/06/01 21:18:17;;;;;;;4.97;3.30;;;;;17.50;100857.00;;;;10505375;28;20200;-77
2021/06/01 21:23:19;;;;;;;3.17;2.97;;;;;17.40;100854.00;;;;10519720;28;20193;-77
2021/06/01 21:28:21;;;;;;;5.97;2.97;;;;;17.30;100863.00;;;;10502129;28;20749;-77
2021/06/01 21:33:35;;;;;;;3.37;2.90;;;;;17.20;100855.00;;;;10526369;28;20213;-77
2021/06/01 21:38:42;;;;;;;5.97;3.30;;;;;17.00;100860.00;;;;10500534;28;20193;-77
2021/06/01 21:43:45;;;;;;;5.90;2.83;;;;;16.80;100858.00;;;;10489010;28;20820;-77
2021/06/01 21:48:47;;;;;;;5.67;3.10;;;;;16.70;100868.00;;;;10515140;28;20204;-77
2021/06/01 21:53:49;;;;;;;3.90;2.80;;;;;16.60;100858.00;;;;10504334;28;20189;-77
2021/06/01 21:58:52;;;;;;;3.40;3.10;;;;;16.70;100866.00;;;;10473578;28;20189;-77
2021/06/01 22:03:55;;;;;;;6.13;3.17;;;;;16.60;100869.00;;;;10510422;28;20202;-77
2021/06/01 22:08:59;;;;;;;3.67;3.20;;;;;16.40;100863.00;;;;10504966;28;20261;-77
2021/06/01 22:14:01;;;;;;;3.40;2.90;;;;;16.30;100865.00;;;;10501439;28;20197;-77
2021/06/01 22:19:07;;;;;;;4.30;3.20;;;;;16.30;100874.00;;;;10477500;28;20189;-77
2021/06/01 22:24:11;;;;;;;3.37;3.00;;;;;16.30;100878.00;;;;10490636;28;20583;-77
2021/06/01 22:29:15;;;;;;;3.77;3.40;;;;;16.40;100885.00;;;;10517230;28;20324;-77
2021/06/01 22:34:19;;;;;;;3.60;3.20;;;;;16.30;100886.00;;;;10504793;28;20328;-77
2021/06/01 22:39:21;;;;;;;5.13;4.27;;;;;16.00;100881.00;;;;10487199;28;20200;-77
2021/06/01 22:44:27;;;;;;;4.30;3.53;;;;;15.80;100880.00;;;;10526375;28;20245;-77
2021/06/01 22:49:30;;;;;;;7.03;3.47;;;;;15.70;100883.00;;;;10498942;28;20200;-77
2021/06/01 22:54:32;;;;;;;4.00;3.40;;;;;15.70;100882.00;;;;10482707;28;20219;-77
2021/06/01 22:59:38;;;;;;;7.80;3.40;;;;;15.70;100881.00;;;;10483533;28;20189;-77
2021/06/01 23:04:42;;;;;;;4.40;4.00;;;;;15.40;100881.00;;;;10507082;28;20552;-77
2021/06/01 23:09:44;;;;;;;5.23;3.50;;;;;15.20;100880.00;;;;10512970;28;20224;-77
2021/06/01 23:14:48;;;;;;;5.50;3.30;;;;;15.00;100886.00;;;;10494123;28;20199;-77
2021/06/01 23:19:50;;;;;;;5.13;3.50;;;;;14.90;100886.00;;;;10532540;28;20200;-77
2021/06/01 23:24:52;;;;;;;6.97;4.40;;;;;14.80;100890.00;;;;10461472;28;20201;-77
2021/06/01 23:29:56;;;;;;;6.10;4.03;;;;;14.80;100895.00;;;;10471601;28;20209;-77
2021/06/01 23:34:58;;;;;;;7.20;4.50;;;;;14.70;100892.00;;;;10469731;28;20241;-77
2021/06/01 23:40:05;;;;;;;4.57;4.17;;;;;14.60;100891.00;;;;10517473;28;20185;-77
2021/06/01 23:45:14;;;;;;;9.23;4.47;;;;;14.60;100883.00;;;;10514549;28;20189;-77
2021/06/01 23:50:17;;;;;;;8.43;5.03;;;;;14.60;100888.00;;;;10482055;28;20227;-77
2021/06/01 23:55:19;;;;;;;4.97;4.47;;;;;14.50;100889.00;;;;10511563;28;20201;-77
